Time;durP1;ratioP1;P1;durP2;ratioP2;P2;SDS_P1;SDS_P2;PMS_P1;PMS_P2;Temp;Humidity;BMP_temperature;BMP_pressure;BME280_temperature;BME280_humidity;BME280_pressure;Samples;Min_cycle;Max_cycle;Signal;HPM_P1;HPM_P2
2021/10/31 00:01:46;;;;;;;;;;;;;;;21.51;33.32;98648.63;5081025;28;901;-79
2021/10/31 00:04:12;;;;;;;;;;;;;;;21.48;33.34;98640.97;5079807;28;1906;-79
2021/10/31 00:06:37;;;;;;;;;;;;;;;21.50;33.34;98643.38;5059120;28;946;-79
2021/10/31 00:09:06;;;;;;;;;;;;;;;21.43;33.14;98654.81;5057331;28;874;-79
2021/10/31 00:11:32;;;;;;;;;;;;;;;21.47;33.27;98647.06;5042460;28;914;-79
2021/10/31 00:13:57;;;;;;;;;;;;;;;21.40;33.10;98650.00;5057724;28;996;-79
2021/10/31 00:16:23;;;;;;;;;;;;;;;21.39;32.80;98648.41;5058813;28;801;-79
2021/10/31 00:18:48;;;;;;;;;;;;;;;21.55;32.94;98642.88;5023559;28;1020;-79
2021/10/31 00:21:14;;;;;;;;;;;;;;;21.81;33.34;98647.72;5062022;28;884;-79
2021/10/31 00:23:39;;;;;;;;;;;;;;;22.02;33.61;98640.03;5060564;28;877;-79
2021/10/31 00:26:05;;;;;;;;;;;;;;;22.36;33.37;98631.34;5063416;28;1962;-79
2021/10/31 00:28:30;;;;;;;;;;;;;;;21.88;33.41;98629.78;5027070;28;886;-79
2021/10/31 00:30:55;;;;;;;;;;;;;;;21.55;33.57;98628.72;5063549;28;742;-79
2021/10/31 00:33:21;;;;;;;;;;;;;;;21.61;33.68;98623.41;5060018;28;948;-79
2021/10/31 00:35:47;;;;;;;;;;;;;;;21.56;33.64;98628.31;5029299;28;981;-79
2021/10/31 00:38:12;;;;;;;;;;;;;;;21.55;33.63;98626.72;5077126;28;912;-79
2021/10/31 00:40:38;;;;;;;;;;;;;;;21.55;33.88;98623.06;5085025;28;777;-79
2021/10/31 00:43:05;;;;;;;;;;;;;;;21.47;33.82;98621.59;5083538;28;800;-79
2021/10/31 00:45:31;;;;;;;;;;;;;;;21.52;33.72;98623.94;5083798;28;1910;-79
2021/10/31 00:47:56;;;;;;;;;;;;;;;21.54;33.57;98621.47;5083193;28;781;-80
2021/10/31 00:50:22;;;;;;;;;;;;;;;21.55;33.37;98628.72;5083981;28;860;-79
2021/10/31 00:52:47;;;;;;;;;;;;;;;21.53;33.59;98619.88;5083406;28;809;-79
2021/10/31 00:55:13;;;;;;;;;;;;;;;21.46;33.35;98615.13;5082953;28;1000;-79
2021/10/31 00:57:38;;;;;;;;;;;;;;;21.49;33.25;98613.44;5084394;28;801;-79
2021/10/31 01:00:04;;;;;;;;;;;;;;;21.46;33.33;98614.34;5083140;28;847;-79
2021/10/31 01:02:30;;;;;;;;;;;;;;;21.46;33.18;98609.47;5062202;28;972;-80
2021/10/31 01:04:57;;;;;;;;;;;;;;;21.45;33.07;98607.88;5059837;28;1910;-79
2021/10/31 01:07:29;;;;;;;;;;;;;;;21.49;32.75;98607.78;5044814;28;1139;-79
2021/10/31 01:10:07;;;;;;;;;;;;;;;21.40;33.28;98601.88;5060404;28;845;-79
2021/10/31 01:12:55;;;;;;;;;;;;;;;21.42;33.12;98613.59;5061692;28;826;-79
2021/10/31 01:15:40;;;;;;;;;;;;;;;21.27;33.11;98608.09;5044514;28;707;-79
2021/10/31 01:18:24;;;;;;;;;;;;;;;21.40;33.09;98599.03;5020373;28;1040;-79
2021/10/31 01:21:05;;;;;;;;;;;;;;;21.80;33.43;98606.44;5022178;28;1122;-79
2021/10/31 01:23:30;;;;;;;;;;;;;;;22.02;33.63;98606.88;5019100;28;1396;-79
2021/10/31 01:25:56;;;;;;;;;;;;;;;22.04;33.90;98597.94;5022666;28;1902;-79
2021/10/31 01:28:39;;;;;;;;;;;;;;;22.28;33.32;98602.34;5019012;28;971;-79
2021/10/31 01:31:05;;;;;;;;;;;;;;;21.99;33.30;98604.09;5021989;28;921;-79
2021/10/31 01:33:33;;;;;;;;;;;;;;;21.74;33.17;98602.50;5018960;28;982;-79
2021/10/31 01:36:01;;;;;;;;;;;;;;;21.68;33.15;98603.44;5023286;28;1012;-79
2021/10/31 01:38:46;;;;;;;;;;;;;;;21.59;33.11;98606.81;5018588;28;769;-79
2021/10/31 01:41:11;;;;;;;;;;;;;;;21.53;32.96;98605.72;5022230;28;900;-79
2021/10/31 01:43:41;;;;;;;;;;;;;;;21.53;33.11;98598.00;5019803;28;948;-79
2021/10/31 01:46:11;;;;;;;;;;;;;;;21.55;33.09;98597.56;5005770;28;1915;-79
2021/10/31 01:48:43;;;;;;;;;;;;;;;21.61;32.79;98590.22;4980492;28;940;-79
2021/10/31 01:51:11;;;;;;;;;;;;;;;21.70;32.68;98598.13;4983179;28;843;-79
2021/10/31 01:53:55;;;;;;;;;;;;;;;21.59;32.72;98587.78;4960278;29;946;-79
2021/10/31 01:56:21;;;;;;;;;;;;;;;21.53;32.88;98581.03;5000859;28;1137;-79
2021/10/31 01:58:50;;;;;;;;;;;;;;;21.54;32.90;98593.16;5000461;28;786;-80
2021/10/31 02:01:16;;;;;;;;;;;;;;;21.56;32.75;98585.84;5001487;28;915;-79
2021/10/31 02:03:41;;;;;;;;;;;;;;;21.40;33.24;98579.22;4999124;28;891;-79
2021/10/31 02:06:07;;;;;;;;;;;;;;;21.48;33.13;98584.34;4962356;29;1902;-79
2021/10/31 02:08:33;;;;;;;;;;;;;;;21.65;34.01;98585.25;4960373;29;783;-79
2021/10/31 02:10:58;;;;;;;;;;;;;;;21.95;34.07;98589.19;4963490;29;1341;-79
2021/10/31 02:13:24;;;;;;;;;;;;;;;21.99;33.89;98587.09;4940696;29;921;-79
2021/10/31 02:15:51;;;;;;;;;;;;;;;21.97;33.22;98592.41;4928163;29;973;-79
2021/10/31 02:18:17;;;;;;;;;;;;;;;21.71;33.61;98591.22;4921742;29;1009;-79
2021/10/31 02:20:42;;;;;;;;;;;;;;;21.62;33.37;98594.63;4924243;29;927;-79
2021/10/31 02:23:08;;;;;;;;;;;;;;;21.60;33.02;98585.75;4922383;29;939;-79
2021/10/31 02:25:33;;;;;;;;;;;;;;;21.39;33.46;98581.25;4905348;29;1884;-79
2021/10/31 02:27:59;;;;;;;;;;;;;;;21.53;33.37;98577.41;4903590;29;990;-79
2021/10/31 02:30:24;;;;;;;;;;;;;;;21.50;33.44;98575.41;4886019;29;950;-79
2021/10/31 02:32:51;;;;;;;;;;;;;;;21.41;33.45;98575.19;4871715;29;864;-79
2021/10/31 02:35:16;;;;;;;;;;;;;;;21.59;33.40;98570.00;4866640;29;990;-79
2021/10/31 02:37:42;;;;;;;;;;;;;;;21.52;33.21;98567.31;4851653;29;781;-79
2021/10/31 02:40:09;;;;;;;;;;;;;;;21.50;33.36;98575.41;4866758;29;886;-79
2021/10/31 02:42:34;;;;;;;;;;;;;;;21.54;33.23;98581.81;4869084;29;845;-79
2021/10/31 02:45:00;;;;;;;;;;;;;;;21.57;33.07;98575.31;4898658;29;1983;-79
2021/10/31 02:47:26;;;;;;;;;;;;;;;21.58;32.95;98565.56;4885934;29;914;-79
2021/10/31 02:49:52;;;;;;;;;;;;;;;21.56;33.35;98568.84;4884447;29;899;-79
2021/10/31 02:52:29;;;;;;;;;;;;;;;21.83;34.07;98571.59;4886424;29;942;-77
2021/10/31 02:55:10;;;;;;;;;;;;;;;22.01;34.34;98570.44;4891011;29;867;-79
2021/10/31 02:57:42;;;;;;;;;;;;;;;21.91;33.97;98572.25;4891829;29;890;-79
2021/10/31 03:00:08;;;;;;;;;;;;;;;21.72;33.61;98571.00;4903103;29;921;-79
2021/10/31 03:02:33;;;;;;;;;;;;;;;21.62;33.53;98574.81;4904302;29;853;-79
2021/10/31 03:04:59;;;;;;;;;;;;;;;21.54;33.48;98581.81;4903216;29;1907;-79
2021/10/31 03:07:25;;;;;;;;;;;;;;;21.43;33.51;98576.34;4904346;29;917;-79
2021/10/31 03:09:50;;;;;;;;;;;;;;;21.53;33.70;98575.34;4902404;29;919;-77
2021/10/31 03:12:16;;;;;;;;;;;;;;;21.53;33.67;98580.22;4916642;29;908;-79
2021/10/31 03:14:41;;;;;;;;;;;;;;;21.46;33.88;98577.53;4940552;29;1141;-79
2021/10/31 03:17:07;;;;;;;;;;;;;;;21.48;33.64;98578.69;4942591;29;921;-79
2021/10/31 03:19:33;;;;;;;;;;;;;;;21.50;33.42;98587.56;4921417;29;973;-79
2021/10/31 03:21:58;;;;;;;;;;;;;;;21.39;33.57;98578.41;4922863;29;805;-79
2021/10/31 03:24:24;;;;;;;;;;;;;;;21.55;33.31;98574.91;4921014;29;1906;-79
2021/10/31 03:26:49;;;;;;;;;;;;;;;21.49;33.20;98585.94;4923642;29;969;-79
2021/10/31 03:29:15;;;;;;;;;;;;;;;21.47;33.39;98581.94;4936882;29;770;-79
2021/10/31 03:31:40;;;;;;;;;;;;;;;21.59;33.15;98575.66;4923286;29;941;-79
2021/10/31 03:34:06;;;;;;;;;;;;;;;21.57;33.36;98576.09;4902723;29;922;-80
2021/10/31 03:36:31;;;;;;;;;;;;;;;21.55;33.18;98572.09;4906270;29;998;-79
2021/10/31 03:38:57;;;;;;;;;;;;;;;21.63;32.90;98567.91;4883634;29;891;-79
2021/10/31 03:41:22;;;;;;;;;;;;;;;21.49;33.31;98557.63;4885221;29;953;-79
2021/10/31 03:43:47;;;;;;;;;;;;;;;21.46;33.12;98571.88;4883754;29;771;-79
2021/10/31 03:46:13;;;;;;;;;;;;;;;21.47;33.20;98564.97;4913231;29;1903;-79
2021/10/31 03:48:38;;;;;;;;;;;;;;;21.43;33.23;98558.56;4921079;29;906;-79
2021/10/31 03:51:04;;;;;;;;;;;;;;;21.46;33.03;98564.16;4951464;29;946;-79
2021/10/31 03:53:29;;;;;;;;;;;;;;;21.50;32.99;98561.25;5000212;28;1003;-79
2021/10/31 03:55:54;;;;;;;;;;;;;;;21.47;33.16;98565.75;5025440;28;1196;-79
2021/10/31 03:58:20;;;;;;;;;;;;;;;21.59;32.61;98558.66;5023758;28;743;-79
2021/10/31 04:00:45;;;;;;;;;;;;;;;21.91;33.53;98562.94;5026123;28;944;-79
2021/10/31 04:03:11;;;;;;;;;;;;;;;21.99;34.04;98551.06;5003869;28;875;-79
2021/10/31 04:05:37;;;;;;;;;;;;;;;22.31;34.38;98560.97;5034694;28;1983;-79
2021/10/31 04:08:02;;;;;;;;;;;;;;;21.93;33.99;98552.00;5043992;28;903;-79
2021/10/31 04:10:28;;;;;;;;;;;;;;;21.63;33.86;98561.44;5044842;28;770;-79
2021/10/31 04:12:54;;;;;;;;;;;;;;;21.33;33.55;98555.47;5044542;28;924;-79
2021/10/31 04:15:19;;;;;;;;;;;;;;;21.42;33.19;98554.13;5044214;28;782;-79
2021/10/31 04:17:45;;;;;;;;;;;;;;;21.37;33.18;98544.09;5044809;28;873;-79
2021/10/31 04:20:10;;;;;;;;;;;;;;;21.45;33.26;98544.75;5044387;28;801;-79
2021/10/31 04:22:36;;;;;;;;;;;;;;;21.53;33.33;98543.41;5045534;28;853;-79
2021/10/31 04:25:04;;;;;;;;;;;;;;;21.88;34.18;98549.66;5043270;28;1902;-79
2021/10/31 04:27:30;;;;;;;;;;;;;;;21.97;34.53;98547.06;5045096;28;837;-79
2021/10/31 04:29:55;;;;;;;;;;;;;;;22.06;34.45;98538.75;5026852;28;901;-79
2021/10/31 04:32:21;;;;;;;;;;;;;;;21.84;34.21;98544.84;5045131;28;766;-79
2021/10/31 04:34:46;;;;;;;;;;;;;;;21.91;33.63;98543.13;5029517;28;1149;-79
2021/10/31 04:37:12;;;;;;;;;;;;;;;21.68;33.55;98524.94;5087356;28;864;-79
2021/10/31 04:39:38;;;;;;;;;;;;;;;21.60;33.53;98534.78;5085422;28;904;-79
2021/10/31 04:42:05;;;;;;;;;;;;;;;21.61;33.55;98536.41;5087442;28;849;-79
2021/10/31 04:44:31;;;;;;;;;;;;;;;21.70;33.43;98530.16;5085624;28;1894;-79
2021/10/31 04:46:56;;;;;;;;;;;;;;;21.58;33.57;98529.56;5087443;28;839;-79
2021/10/31 04:49:21;;;;;;;;;;;;;;;21.67;33.30;98523.34;5085561;28;908;-79
2021/10/31 04:51:47;;;;;;;;;;;;;;;21.53;33.66;98518.72;5087397;28;761;-79
2021/10/31 04:54:12;;;;;;;;;;;;;;;21.56;33.48;98528.41;5085720;28;762;-79
2021/10/31 04:56:38;;;;;;;;;;;;;;;21.53;33.62;98529.25;5086783;28;1118;-79
2021/10/31 04:59:03;;;;;;;;;;;;;;;21.52;33.66;98528.47;5086153;28;970;-79
2021/10/31 05:01:28;;;;;;;;;;;;;;;21.41;33.70;98515.72;5087908;28;912;-79
2021/10/31 05:03:54;;;;;;;;;;;;;;;21.56;33.35;98523.53;5063623;28;980;-80
2021/10/31 05:06:19;;;;;;;;;;;;;;;21.56;33.48;98522.75;5064216;28;1989;-79
2021/10/31 05:08:45;;;;;;;;;;;;;;;21.54;33.42;98525.97;5060273;28;1036;-79
2021/10/31 05:11:10;;;;;;;;;;;;;;;21.54;33.16;98528.81;5062122;28;1051;-79
2021/10/31 05:13:36;;;;;;;;;;;;;;;21.47;33.30;98511.16;5059678;28;946;-79
2021/10/31 05:16:01;;;;;;;;;;;;;;;21.51;33.17;98512.72;5063263;28;904;-79
2021/10/31 05:18:27;;;;;;;;;;;;;;;21.43;33.34;98524.59;5042535;28;1161;-79
2021/10/31 05:20:52;;;;;;;;;;;;;;;21.44;33.59;98521.31;5062843;28;842;-79
2021/10/31 05:23:17;;;;;;;;;;;;;;;21.45;33.35;98522.09;5059701;28;932;-79
2021/10/31 05:25:43;;;;;;;;;;;;;;;21.49;33.39;98529.31;5062149;28;1910;-79
2021/10/31 05:28:08;;;;;;;;;;;;;;;21.50;33.19;98530.09;5019951;28;1087;-79
2021/10/31 05:30:34;;;;;;;;;;;;;;;21.44;33.25;98529.00;5022021;28;984;-79
2021/10/31 05:32:59;;;;;;;;;;;;;;;21.50;33.26;98530.09;5021338;28;902;-79
2021/10/31 05:35:25;;;;;;;;;;;;;;;21.61;33.74;98527.91;5050315;28;920;-79
2021/10/31 05:37:58;;;;;;;;;;;;;;;21.89;34.04;98535.06;5060782;28;898;-79
2021/10/31 05:40:24;;;;;;;;;;;;;;;22.03;34.10;98534.00;5060986;28;957;-79
2021/10/31 05:42:49;;;;;;;;;;;;;;;22.15;34.01;98526.91;5060144;28;950;-79
2021/10/31 05:45:15;;;;;;;;;;;;;;;21.85;33.69;98532.28;5060255;28;1914;-79
2021/10/31 05:47:40;;;;;;;;;;;;;;;21.71;33.30;98529.75;5060318;28;1050;-79
2021/10/31 05:50:06;;;;;;;;;;;;;;;21.71;32.74;98524.06;5059543;28;959;-79
2021/10/31 05:52:32;;;;;;;;;;;;;;;21.70;32.56;98530.94;5061019;28;1133;-79
2021/10/31 05:54:58;;;;;;;;;;;;;;;21.58;33.08;98525.94;5043361;28;1106;-79
2021/10/31 05:57:23;;;;;;;;;;;;;;;21.64;32.88;98524.19;5044427;28;876;-79
2021/10/31 05:59:49;;;;;;;;;;;;;;;21.47;33.28;98528.16;5056760;28;1277;-79
2021/10/31 06:02:14;;;;;;;;;;;;;;;21.50;33.23;98519.59;5049792;28;1261;-79
2021/10/31 06:04:42;;;;;;;;;;;;;;;21.51;33.05;98526.06;5049140;28;1968;-80
2021/10/31 06:07:07;;;;;;;;;;;;;;;21.76;34.04;98520.75;5034906;28;1233;-79
2021/10/31 06:09:33;;;;;;;;;;;;;;;22.00;34.10;98517.84;5047546;28;1418;-79
2021/10/31 06:11:58;;;;;;;;;;;;;;;22.19;33.70;98514.25;5051982;28;1248;-79
2021/10/31 06:14:25;;;;;;;;;;;;;;;22.02;33.38;98521.03;5058639;28;1272;-79
2021/10/31 06:16:50;;;;;;;;;;;;;;;21.80;33.31;98527.13;5061109;28;1316;-79
2021/10/31 06:19:16;;;;;;;;;;;;;;;21.68;33.45;98535.47;5064393;28;1363;-79
2021/10/31 06:21:41;;;;;;;;;;;;;;;21.66;32.89;98532.25;5069460;28;1255;-79
2021/10/31 06:24:07;;;;;;;;;;;;;;;21.65;33.26;98525.78;5068080;28;1236;-79
2021/10/31 06:26:32;;;;;;;;;;;;;;;21.51;33.63;98528.91;5071406;28;1918;-79
2021/10/31 06:28:57;;;;;;;;;;;;;;;21.64;32.98;98534.72;5037519;28;1341;-79
2021/10/31 06:31:23;;;;;;;;;;;;;;;21.58;33.43;98537.25;5070078;28;1204;-80
2021/10/31 06:33:48;;;;;;;;;;;;;;;21.60;33.08;98540.44;5067220;28;1268;-79
2021/10/31 06:36:14;;;;;;;;;;;;;;;21.39;33.59;98540.81;5070839;28;1402;-80
2021/10/31 06:38:39;;;;;;;;;;;;;;;21.55;32.93;98538.09;5068107;28;1348;-79
2021/10/31 06:41:09;;;;;;;;;;;;;;;21.43;33.12;98541.56;5038949;28;1297;-79
2021/10/31 06:43:35;;;;;;;;;;;;;;;21.43;33.06;98533.88;5068947;28;1233;-79
2021/10/31 06:46:00;;;;;;;;;;;;;;;21.57;33.37;98547.78;5025280;28;1956;-79
2021/10/31 06:48:26;;;;;;;;;;;;;;;21.88;33.87;98538.34;5067719;28;1265;-79
2021/10/31 06:50:53;;;;;;;;;;;;;;;22.07;33.67;98540.34;5068937;28;1303;-79
2021/10/31 06:53:19;;;;;;;;;;;;;;;22.06;33.81;98550.09;5077498;28;1244;-78
2021/10/31 06:55:45;;;;;;;;;;;;;;;21.74;33.42;98550.72;5048666;28;1319;-78
2021/10/31 06:58:10;;;;;;;;;;;;;;;21.71;32.97;98551.56;5047098;28;1237;-78
2021/10/31 07:00:36;;;;;;;;;;;;;;;21.46;33.17;98547.19;5034308;28;1249;-79
2021/10/31 07:03:01;;;;;;;;;;;;;;;21.65;32.63;98550.47;5048221;28;1285;-78
2021/10/31 07:05:26;;;;;;;;;;;;;;;21.62;32.59;98555.00;5048690;28;1906;-79
2021/10/31 07:07:52;;;;;;;;;;;;;;;21.59;33.04;98550.19;5049950;28;1340;-78
2021/10/31 07:10:17;;;;;;;;;;;;;;;21.63;32.99;98550.91;5048367;28;1504;-78
2021/10/31 07:12:43;;;;;;;;;;;;;;;21.57;33.23;98547.00;5051844;28;1344;-79
2021/10/31 07:15:09;;;;;;;;;;;;;;;21.81;34.31;98551.41;5047606;28;1228;-78
2021/10/31 07:17:34;;;;;;;;;;;;;;;21.99;34.03;98551.06;5050582;28;1399;-79
2021/10/31 07:20:00;;;;;;;;;;;;;;;22.17;33.59;98547.09;5046254;28;1344;-79
2021/10/31 07:22:25;;;;;;;;;;;;;;;21.73;33.44;98543.47;5049733;28;1309;-79
2021/10/31 07:24:51;;;;;;;;;;;;;;;21.54;33.71;98534.47;5046624;28;1919;-79
2021/10/31 07:27:18;;;;;;;;;;;;;;;21.57;33.13;98535.66;5000336;28;1329;-78
2021/10/31 07:29:43;;;;;;;;;;;;;;;21.63;33.10;98533.13;4997244;28;1356;-79
2021/10/31 07:32:09;;;;;;;;;;;;;;;21.64;32.91;98534.72;5000742;28;1302;-79
2021/10/31 07:34:34;;;;;;;;;;;;;;;21.50;33.29;98525.28;4998546;28;1317;-79
2021/10/31 07:37:00;;;;;;;;;;;;;;;21.56;33.10;98528.41;4999601;28;1321;-78
2021/10/31 07:39:27;;;;;;;;;;;;;;;21.41;33.36;98533.50;4998810;28;1210;-79
2021/10/31 07:41:52;;;;;;;;;;;;;;;21.53;33.31;98523.59;4980477;28;1283;-79
2021/10/31 07:44:19;;;;;;;;;;;;;;;21.52;33.02;98527.66;4978381;28;1417;-79
2021/10/31 07:46:44;;;;;;;;;;;;;;;21.48;33.13;98524.09;4980373;28;1970;-79
2021/10/31 07:49:10;;;;;;;;;;;;;;;21.44;33.46;98523.34;4979238;28;1353;-79
2021/10/31 07:51:36;;;;;;;;;;;;;;;21.76;33.72;98526.41;4981050;28;919;-78
2021/10/31 07:54:02;;;;;;;;;;;;;;;21.83;34.19;98520.59;4979159;28;972;-79
2021/10/31 07:56:31;;;;;;;;;;;;;;;22.04;33.90;98516.53;4992918;28;1153;-79
2021/10/31 07:58:56;;;;;;;;;;;;;;;21.81;33.57;98523.06;5015104;28;1018;-79
2021/10/31 08:01:23;;;;;;;;;;;;;;;21.78;33.08;98528.81;5020781;28;917;-79
2021/10/31 08:03:49;;;;;;;;;;;;;;;21.70;33.13;98528.13;5002889;28;959;-79
2021/10/31 08:06:14;;;;;;;;;;;;;;;21.69;32.85;98515.19;5004115;28;1910;-78
2021/10/31 08:08:42;;;;;;;;;;;;;;;21.72;32.81;98519.22;5018719;28;967;-79
2021/10/31 08:11:07;;;;;;;;;;;;;;;21.67;32.89;98523.34;4988809;28;946;-79
2021/10/31 08:13:33;;;;;;;;;;;;;;;21.58;32.85;98528.75;5033723;28;1035;-79
2021/10/31 08:15:59;;;;;;;;;;;;;;;21.60;32.90;98523.44;5041628;28;1030;-79
2021/10/31 08:18:24;;;;;;;;;;;;;;;21.56;32.75;98519.91;5037759;28;1179;-79
2021/10/31 08:20:50;;;;;;;;;;;;;;;21.58;32.98;98521.06;5041104;28;1002;-79
2021/10/31 08:23:15;;;;;;;;;;;;;;;21.54;33.05;98513.88;5037668;28;952;-79
2021/10/31 08:25:41;;;;;;;;;;;;;;;21.65;32.79;98517.28;5040386;28;1913;-79
2021/10/31 08:28:09;;;;;;;;;;;;;;;21.59;32.72;98527.53;5038160;28;892;-79
2021/10/31 08:30:34;;;;;;;;;;;;;;;21.61;32.63;98524.28;5039499;28;979;-79
2021/10/31 08:33:06;;;;;;;;;;;;;;;21.55;32.48;98527.59;5038713;28;1057;-79
2021/10/31 08:35:32;;;;;;;;;;;;;;;21.79;33.45;98525.53;5041409;28;923;-79
2021/10/31 08:37:57;;;;;;;;;;;;;;;21.98;33.61;98520.31;5056487;28;819;-79
2021/10/31 08:40:23;;;;;;;;;;;;;;;22.10;33.41;98517.66;5058966;28;904;-79
2021/10/31 08:42:49;;;;;;;;;;;;;;;21.77;33.21;98522.34;5022973;28;905;-79
2021/10/31 08:45:14;;;;;;;;;;;;;;;21.69;32.92;98523.69;5023215;28;1906;-79
2021/10/31 08:47:40;;;;;;;;;;;;;;;21.64;32.82;98518.53;5022975;28;985;-79
2021/10/31 08:50:06;;;;;;;;;;;;;;;21.55;32.93;98515.47;5022678;28;908;-79
2021/10/31 08:52:31;;;;;;;;;;;;;;;21.55;32.92;98504.13;5023821;28;973;-79
2021/10/31 08:54:57;;;;;;;;;;;;;;;21.69;32.74;98509.53;5021899;28;1041;-78
2021/10/31 08:57:22;;;;;;;;;;;;;;;21.62;32.58;98498.34;5023463;28;936;-79
2021/10/31 08:59:48;;;;;;;;;;;;;;;21.64;32.88;98501.53;5021566;28;1186;-79
2021/10/31 09:02:13;;;;;;;;;;;;;;;21.45;33.15;98503.13;5023943;28;983;-79
2021/10/31 09:04:39;;;;;;;;;;;;;;;21.55;32.93;98506.97;5021992;28;1922;-79
2021/10/31 09:07:14;;;;;;;;;;;;;;;21.59;32.68;98494.34;5023905;28;897;-79
2021/10/31 09:09:39;;;;;;;;;;;;;;;21.84;33.29;98504.41;5021579;28;1349;-79
2021/10/31 09:12:05;;;;;;;;;;;;;;;21.96;33.44;98500.09;5006586;28;915;-79
2021/10/31 09:14:31;;;;;;;;;;;;;;;22.14;33.02;98500.59;5001416;28;885;-79
2021/10/31 09:16:56;;;;;;;;;;;;;;;21.86;33.03;98501.91;5003247;28;1361;-79
2021/10/31 09:19:21;;;;;;;;;;;;;;;21.68;33.33;98502.28;5008197;28;914;-78
2021/10/31 09:21:47;;;;;;;;;;;;;;;21.65;32.83;98499.50;5042985;28;877;-79
2021/10/31 09:24:12;;;;;;;;;;;;;;;21.64;32.67;98501.53;5040537;28;936;-79
2021/10/31 09:26:38;;;;;;;;;;;;;;;21.58;33.14;98491.94;5042414;28;1995;-79
2021/10/31 09:29:03;;;;;;;;;;;;;;;21.58;32.81;98494.78;5040783;28;933;-79
2021/10/31 09:31:29;;;;;;;;;;;;;;;21.58;32.73;98486.28;5042405;28;925;-78
2021/10/31 09:33:55;;;;;;;;;;;;;;;21.57;32.76;98490.34;5041439;28;871;-79
2021/10/31 09:36:21;;;;;;;;;;;;;;;21.59;32.69;98482.22;5043240;28;1129;-79
2021/10/31 09:38:46;;;;;;;;;;;;;;;21.46;33.00;98481.25;5020403;28;1052;-79
2021/10/31 09:41:13;;;;;;;;;;;;;;;21.47;32.80;98480.03;4990342;28;1236;-78
2021/10/31 09:43:47;;;;;;;;;;;;;;;21.53;32.56;98483.94;4987708;28;1314;-79
2021/10/31 09:46:12;;;;;;;;;;;;;;;21.58;32.38;98480.63;5022086;28;1903;-78
2021/10/31 09:48:38;;;;;;;;;;;;;;;21.87;33.43;98463.09;5019653;28;917;-78
2021/10/31 09:51:05;;;;;;;;;;;;;;;21.98;33.40;98475.00;5003975;28;957;-78
2021/10/31 09:53:30;;;;;;;;;;;;;;;22.07;33.01;98466.69;5015164;28;951;-78
2021/10/31 09:55:57;;;;;;;;;;;;;;;21.83;32.96;98475.28;5011677;28;1097;-78
2021/10/31 09:58:35;;;;;;;;;;;;;;;21.74;32.82;98466.53;5019710;28;944;-78
2021/10/31 10:01:05;;;;;;;;;;;;;;;21.64;32.98;98459.06;5022318;28;1229;-78
2021/10/31 10:06:18;;;;;;;;;;;;;;;21.71;32.70;98456.09;5003642;28;1973;-78
2021/10/31 10:08:58;;;;;;;;;;;;;;;21.44;33.19;98458.22;4999485;28;1301;-78
2021/10/31 10:11:23;;;;;;;;;;;;;;;21.55;32.68;98448.31;5022042;28;979;-78
2021/10/31 10:13:49;;;;;;;;;;;;;;;21.60;32.47;98447.00;5019988;28;1365;-78
2021/10/31 10:16:17;;;;;;;;;;;;;;;21.61;32.59;98440.13;5005668;28;1147;-78
2021/10/31 10:18:43;;;;;;;;;;;;;;;21.62;32.69;98441.72;5020000;28;1008;-79
2021/10/31 10:21:18;;;;;;;;;;;;;;;21.63;32.44;98437.63;5022702;28;867;-78
2021/10/31 10:23:46;;;;;;;;;;;;;;;21.55;32.45;98441.84;5019750;28;989;-78
2021/10/31 10:26:12;;;;;;;;;;;;;;;21.59;32.39;98448.22;5021967;28;1898;-78
2021/10/31 10:28:37;;;;;;;;;;;;;;;21.57;32.48;98439.38;5002569;28;939;-78
2021/10/31 10:31:19;;;;;;;;;;;;;;;21.44;32.43;98444.88;5023137;28;960;-78
2021/10/31 10:33:48;;;;;;;;;;;;;;;21.53;32.75;98433.00;5038562;28;961;-78
2021/10/31 10:36:14;;;;;;;;;;;;;;;21.83;33.47;98434.81;5041011;28;1073;-78
2021/10/31 10:38:39;;;;;;;;;;;;;;;21.94;33.33;98434.59;5038717;28;1062;-78
2021/10/31 10:41:05;;;;;;;;;;;;;;;22.00;33.28;98432.84;5042200;28;1051;-79
2021/10/31 10:43:31;;;;;;;;;;;;;;;21.78;33.18;98432.50;5036239;28;1386;-79
2021/10/31 10:46:10;;;;;;;;;;;;;;;21.68;32.77;98431.47;5031925;28;1981;-78
2021/10/31 10:48:52;;;;;;;;;;;;;;;21.57;33.08;98422.41;5028923;28;1515;-79
2021/10/31 10:51:17;;;;;;;;;;;;;;;21.50;33.09;98437.50;5031660;28;1368;-78
2021/10/31 10:53:43;;;;;;;;;;;;;;;21.56;33.04;98432.13;5027210;28;1261;-78
2021/10/31 10:56:09;;;;;;;;;;;;;;;21.68;32.68;98434.31;5019964;28;1245;-78
2021/10/31 10:58:35;;;;;;;;;;;;;;;21.64;32.57;98427.91;5021683;28;1209;-79
2021/10/31 11:01:00;;;;;;;;;;;;;;;21.52;32.82;98439.88;5041734;28;1339;-78
2021/10/31 11:03:29;;;;;;;;;;;;;;;21.55;32.88;98430.50;4998108;28;1284;-78
2021/10/31 11:06:02;;;;;;;;;;;;;;;21.43;32.73;98434.00;5010532;28;1970;-78
2021/10/31 11:08:27;;;;;;;;;;;;;;;21.82;33.11;98424.72;5016251;28;1314;-78
2021/10/31 11:11:19;;;;;;;;;;;;;;;21.90;33.68;98422.53;5021774;28;951;-78
2021/10/31 11:13:45;;;;;;;;;;;;;;;22.01;33.31;98423.09;4960214;29;1075;-78
2021/10/31 11:16:10;;;;;;;;;;;;;;;21.69;33.10;98424.56;4950638;29;1346;-78
2021/10/31 11:18:36;;;;;;;;;;;;;;;21.65;32.79;98418.16;4930416;29;1291;-78
2021/10/31 11:21:01;;;;;;;;;;;;;;;21.52;32.78;98420.06;4919710;29;1362;-79
2021/10/31 11:23:27;;;;;;;;;;;;;;;21.64;32.53;98422.25;4923571;29;1252;-79
2021/10/31 11:25:52;;;;;;;;;;;;;;;21.62;32.63;98419.06;4927703;29;1920;-79
2021/10/31 11:28:18;;;;;;;;;;;;;;;21.52;33.05;98420.06;4930879;29;1311;-78
2021/10/31 11:30:45;;;;;;;;;;;;;;;21.49;33.12;98420.94;4934939;29;1224;-78
2021/10/31 11:33:10;;;;;;;;;;;;;;;21.55;32.82;98419.19;4932215;29;1306;-78
2021/10/31 11:35:36;;;;;;;;;;;;;;;21.55;32.79;98408.69;4961091;29;1267;-78
2021/10/31 11:38:01;;;;;;;;;;;;;;;21.57;32.62;98411.06;4969267;28;1362;-78
2021/10/31 11:40:31;;;;;;;;;;;;;;;21.52;32.91;98403.09;4960969;29;1398;-78
2021/10/31 11:42:57;;;;;;;;;;;;;;;21.52;32.40;98403.09;4914904;29;1201;-78
2021/10/31 11:45:23;;;;;;;;;;;;;;;21.61;32.49;98403.31;4912263;29;1904;-78
2021/10/31 11:48:08;;;;;;;;;;;;;;;21.50;32.54;98402.69;4911320;29;1122;-78
2021/10/31 11:50:34;;;;;;;;;;;;;;;21.49;32.42;98406.78;4951819;28;1314;-79
2021/10/31 11:53:00;;;;;;;;;;;;;;;21.52;32.61;98403.88;4969599;28;1196;-78
2021/10/31 11:55:25;;;;;;;;;;;;;;;21.65;32.41;98406.03;4975745;28;1357;-79
2021/10/31 11:57:57;;;;;;;;;;;;;;;21.51;33.66;98395.81;4991810;28;1249;-79
2021/10/31 12:00:24;;;;;;;;;;;;;;;21.89;33.24;98395.44;4975590;28;1317;-79
2021/10/31 12:02:51;;;;;;;;;;;;;;;22.04;33.30;98399.56;4988582;28;1241;-79
2021/10/31 12:05:39;;;;;;;;;;;;;;;21.89;33.03;98392.59;4942073;29;1910;-79
2021/10/31 12:08:08;;;;;;;;;;;;;;;21.70;33.10;98397.84;4940259;29;1421;-79
2021/10/31 12:10:39;;;;;;;;;;;;;;;21.68;32.94;98383.31;4926438;29;1365;-79
2021/10/31 12:13:17;;;;;;;;;;;;;;;21.60;32.75;98387.53;4924427;29;1374;-79
2021/10/31 12:15:57;;;;;;;;;;;;;;;21.50;33.08;98382.88;4943585;29;1378;-79
2021/10/31 12:18:39;;;;;;;;;;;;;;;21.52;32.97;98391.75;4914376;29;1272;-79
2021/10/31 12:21:05;;;;;;;;;;;;;;;21.67;32.68;98383.78;4898571;29;1319;-79
2021/10/31 12:23:30;;;;;;;;;;;;;;;21.55;32.59;98380.38;4908082;29;1344;-79
2021/10/31 12:25:56;;;;;;;;;;;;;;;21.50;33.08;98375.22;4924368;29;1985;-79
2021/10/31 12:28:40;;;;;;;;;;;;;;;21.51;32.74;98381.66;4908073;29;1343;-79
2021/10/31 12:31:24;;;;;;;;;;;;;;;21.44;32.99;98374.09;4913781;29;1257;-79
2021/10/31 12:34:25;;;;;;;;;;;;;;;21.43;33.09;98377.38;4868213;29;1457;-79
2021/10/31 12:36:51;;;;;;;;;;;;;;;21.41;32.89;98369.31;4831821;29;1270;-79
2021/10/31 12:39:32;;;;;;;;;;;;;;;21.43;32.52;98372.50;4813918;29;1231;-79
2021/10/31 12:42:14;;;;;;;;;;;;;;;21.75;33.41;98374.66;4810230;29;1263;-79
2021/10/31 12:44:44;;;;;;;;;;;;;;;21.98;33.37;98370.94;4777216;30;1904;-79
2021/10/31 12:47:12;;;;;;;;;;;;;;;22.04;32.77;98365.56;4779885;30;1235;-79
2021/10/31 12:49:38;;;;;;;;;;;;;;;21.75;33.05;98371.03;4796874;29;1791;-79
2021/10/31 12:52:04;;;;;;;;;;;;;;;21.73;32.76;98363.00;4826587;29;1420;-79
2021/10/31 12:54:31;;;;;;;;;;;;;;;21.65;32.89;98361.53;4841175;29;1154;-79
2021/10/31 12:56:56;;;;;;;;;;;;;;;21.57;32.61;98371.44;4849198;29;1249;-79
2021/10/31 12:59:22;;;;;;;;;;;;;;;21.63;32.99;98361.19;4850091;29;1235;-79
2021/10/31 13:01:48;;;;;;;;;;;;;;;21.69;32.56;98359.44;4851726;29;1353;-79
2021/10/31 13:04:13;;;;;;;;;;;;;;;21.67;32.61;98364.75;4868048;29;1223;-79
2021/10/31 13:06:57;;;;;;;;;;;;;;;21.75;33.43;98363.34;4926388;29;1918;-79